• Join FlightAware (Why Join?)
  • Login
  • US Flag 
05:33AM EST


 

Airport Tracker/Info


-or-


 

Live Flight TrackerFlight Track Log ✈ DAL3688 ✈ 10-Apr-2013 ✈ KDTW - KMDT

Flight Track Log - Related Links

Times and Time Zones

All times are in EDT time to prevent confusion due to time zone crossing. See the DAL3688 flight status page for this flight to view local times or setup timezone preferences in your user account.

Time Position Orientation Groundspeed Altitude Reporting Facility
EDT Latitude Longitude Course Direction KTS MPH feet Rate Location/Type
10:45AM 42.2250 -83.3394 23° Northeast 142 163 1,400  Level Cleveland Center
10:46AM 42.2567 -83.3214 23° Northeast 203 234 2,600 2,100 Climbing Cleveland Center
10:47AM 42.3119 -83.2758 31° Northeast 261 300 5,100 2,340 Climbing Cleveland Center
10:48AM 42.3742 -83.2000 42° Northeast 315 362 7,400 2,220 Climbing Cleveland Center
10:49AM 42.3642 -83.0842 97° East 330 380 9,700 1,380 Climbing Cleveland Center
10:50AM 42.3397 -82.9653 106° East 375 432 10,000 240 Climbing Cleveland Center
10:50AM 42.3297 -82.9339 113° Southeast 385 443 10,000 900 Level Cleveland Center
10:51AM 42.3069 -82.8264 106° East 382 440 10,900 1,680 Climbing Cleveland Center
10:52AM 42.2781 -82.6964 107° East 428 493 12,900 1,440 Climbing Cleveland Center
10:53AM 42.2453 -82.5494 107° East 417 480 13,800 1,440 Climbing Cleveland Center
10:54AM 42.2167 -82.3914 104° East 417 480 15,800 1,200 Climbing Cleveland Center
10:55AM 42.2067 -82.2314 95° East 423 487 16,300 720 Climbing Cleveland Center
10:56AM 42.1983 -82.0714 94° East 428 493 17,300 1,380 Climbing Cleveland Center
10:57AM 42.1689 -81.9139 104° East 428 493 19,100 1,800 Climbing Cleveland Center
10:58AM 42.0825 -81.8142 139° Southeast 392 451 20,900 1,500 Climbing Cleveland Center
10:59AM 41.9939 -81.7147 140° Southeast 398 458 22,100 1,320 Climbing Cleveland Center
11:00AM 41.9053 -81.6097 139° Southeast 421 484 23,600 1,680 Climbing Cleveland Center
11:01AM 41.8186 -81.5108 140° Southeast 426 490 25,500 1,380 Climbing Cleveland Center
11:02AM 41.7400 -81.4181 139° Southeast 426 490 26,400 720 Climbing Cleveland Center
11:03AM 41.6469 -81.3139 140° Southeast 431 496 27,000 300 Climbing Cleveland Center
11:04AM 41.5497 -81.2047 140° Southeast 437 503 27,000  Level Cleveland Center
11:05AM 41.4775 -81.0625 124° Southeast 461 531 27,000  Level Cleveland Center
11:06AM 41.4092 -80.8906 118° Southeast 469 540 27,000  Level Cleveland Center
11:07AM 41.3469 -80.7297 117° Southeast 480 552 27,000  Level Cleveland Center
11:08AM 41.2844 -80.5719 118° Southeast 480 552 27,000  Level Cleveland Center
11:09AM 41.2239 -80.4147 117° Southeast 480 552 27,000  Level Cleveland Center
11:10AM 41.1694 -80.2714 117° Southeast 480 552 27,000  Level Cleveland Center
11:11AM 41.1064 -80.1119 118° Southeast 480 552 27,000  Level Cleveland Center
11:12AM 41.0431 -79.9581 119° Southeast 480 552 27,000  Level Cleveland Center
11:13AM 40.9797 -79.8019 118° Southeast 480 552 27,000 -420 Level Cleveland Center
11:14AM 40.9181 -79.6461 118° Southeast 480 552 26,200 -1,200 Descending Cleveland Center
11:15AM 40.8497 -79.4797 118° Southeast 475 547 24,700 -1,500 Descending Cleveland Center
11:16AM 40.7878 -79.3272 118° Southeast 475 547 23,200 -1,500 Descending Cleveland Center
11:17AM 40.7256 -79.1775 119° Southeast 475 547 21,700 -1,500 Descending Cleveland Center
11:18AM 40.6633 -79.0283 119° Southeast 469 540 20,200 -1,440 Descending Cleveland Center
11:19AM 40.6050 -78.8958 120° Southeast 457 526 18,900 -1,560 Descending Cleveland Center
11:20AM 40.5442 -78.7306 116° Southeast 457 526 17,100 -1,680 Descending Cleveland Center
11:21AM 40.5228 -78.5728 100° East 449 517 15,600 -1,500 Descending Cleveland Center
11:22AM 40.4989 -78.4178 101° East 438 504 14,100 -1,440 Descending Cleveland Center
11:23AM 40.4783 -78.2617 100° East 430 495 12,600 -1,440 Descending New York Center
11:24AM 40.4564 -78.1117 101° East 430 495 11,100 -840 Descending New York Center
11:25AM 40.4361 -77.9678 100° East 417 480 11,000 -60 Descending New York Center
11:26AM 40.4156 -77.8264 101° East 403 464 11,000 -300 Level New York Center
11:27AM 40.3981 -77.6992 100° East 380 437 10,400 -960 Descending New York Center
11:28AM 40.3761 -77.5717 103° East 339 390 9,100 -720 Descending New York Center
11:29AM 40.3592 -77.4667 102° East 327 376 9,000 -60 Descending New York Center
11:30AM 40.3244 -77.3461 111° Southeast 322 371 9,000  Level New York Center
11:31AM 40.2792 -77.2575 124° Southeast 322 371 9,000 -120 Level New York Center
11:32AM 40.2247 -77.1461 123° Southeast 327 376 8,800 -960 Descending New York Center
11:33AM 40.1814 -77.0608 124° Southeast 319 367 7,100 -1,800 Descending New York Center
11:34AM 40.1456 -76.9489 113° Southeast 310 357 5,200 -1,800 Descending New York Center
11:35AM 40.1317 -76.8581 101° East 291 335 3,500 -1,560 Descending New York Center
11:36AM 40.1178 -76.7617 101° East 265 305 2,100 -780 Descending New York Center
11:37AM 40.1378 -76.6928 69° East 222 255 2,000 -120 Descending New York Center
11:38AM 40.1678 -76.6383 54° Northeast 188 216 1,900 4,500 Descending New York Center
11:39AM 40.1978 -76.5783 57° Northeast 188 216 11,000 4,500 Climbing New York Center
11:40AM 40.2256 -76.5208 58° Northeast 188 216 11,000  Level New York Center